sensor_id;sensor_type;location;lat;lon;timestamp;pressure;altitude;pressure_sealevel;temperature;humidity
22653;BME280;11493;43.344;26.226;2022-11-15T00:01:54;100097.97;;;9.28;100.00
22653;BME280;11493;43.344;26.226;2022-11-15T00:04:39;100093.34;;;9.23;100.00
22653;BME280;11493;43.344;26.226;2022-11-15T00:07:25;100090.88;;;9.21;100.00
22653;BME280;11493;43.344;26.226;2022-11-15T00:10:30;100089.91;;;9.07;100.00
22653;BME280;11493;43.344;26.226;2022-11-15T00:13:16;100100.53;;;9.19;100.00
22653;BME280;11493;43.344;26.226;2022-11-15T00:16:02;100096.91;;;9.23;100.00
22653;BME280;11493;43.344;26.226;2022-11-15T00:18:48;100102.97;;;9.20;100.00
22653;BME280;11493;43.344;26.226;2022-11-15T00:21:35;100104.63;;;9.21;100.00
22653;BME280;11493;43.344;26.226;2022-11-15T00:24:20;100093.63;;;9.21;100.00
22653;BME280;11493;43.344;26.226;2022-11-15T00:27:06;100094.78;;;9.15;100.00
22653;BME280;11493;43.344;26.226;2022-11-15T00:29:52;100089.88;;;9.12;100.00
22653;BME280;11493;43.344;26.226;2022-11-15T00:32:38;100081.13;;;9.05;100.00
22653;BME280;11493;43.344;26.226;2022-11-15T00:35:25;100096.41;;;9.16;100.00
22653;BME280;11493;43.344;26.226;2022-11-15T00:38:10;100080.03;;;9.06;100.00
22653;BME280;11493;43.344;26.226;2022-11-15T00:40:56;100088.78;;;9.08;100.00
22653;BME280;11493;43.344;26.226;2022-11-15T00:43:42;100081.41;;;9.04;100.00
22653;BME280;11493;43.344;26.226;2022-11-15T00:46:29;100078.63;;;9.09;100.00
22653;BME280;11493;43.344;26.226;2022-11-15T00:49:15;100076.25;;;8.97;100.00
22653;BME280;11493;43.344;26.226;2022-11-15T00:52:00;100078.91;;;9.07;100.00
22653;BME280;11493;43.344;26.226;2022-11-15T00:54:46;100067.41;;;9.05;100.00
22653;BME280;11493;43.344;26.226;2022-11-15T00:57:32;100069.00;;;9.11;100.00
22653;BME280;11493;43.344;26.226;2022-11-15T01:00:18;100069.63;;;9.03;100.00
22653;BME280;11493;43.344;26.226;2022-11-15T01:03:04;100065.53;;;9.01;100.00
22653;BME280;11493;43.344;26.226;2022-11-15T01:05:50;100072.56;;;9.12;100.00
22653;BME280;11493;43.344;26.226;2022-11-15T01:08:36;100065.19;;;9.07;100.00
22653;BME280;11493;43.344;26.226;2022-11-15T01:11:23;100063.84;;;9.05;100.00
22653;BME280;11493;43.344;26.226;2022-11-15T01:14:09;100051.00;;;8.95;100.00
22653;BME280;11493;43.344;26.226;2022-11-15T01:16:55;100068.50;;;9.04;100.00
22653;BME280;11493;43.344;26.226;2022-11-15T01:19:41;100059.75;;;9.02;100.00
22653;BME280;11493;43.344;26.226;2022-11-15T01:22:27;100064.63;;;9.10;100.00
22653;BME280;11493;43.344;26.226;2022-11-15T01:25:13;100059.94;;;9.11;100.00
22653;BME280;11493;43.344;26.226;2022-11-15T01:27:59;100049.28;;;9.04;100.00
22653;BME280;11493;43.344;26.226;2022-11-15T01:30:45;100064.38;;;9.07;100.00
22653;BME280;11493;43.344;26.226;2022-11-15T01:33:30;100061.41;;;8.98;100.00
22653;BME280;11493;43.344;26.226;2022-11-15T01:36:19;100064.97;;;8.99;100.00
22653;BME280;11493;43.344;26.226;2022-11-15T01:39:11;100055.41;;;8.96;100.00
22653;BME280;11493;43.344;26.226;2022-11-15T01:41:56;100045.00;;;8.93;100.00
22653;BME280;11493;43.344;26.226;2022-11-15T01:44:52;100051.78;;;9.01;100.00
22653;BME280;11493;43.344;26.226;2022-11-15T01:47:43;100052.31;;;9.03;100.00
22653;BME280;11493;43.344;26.226;2022-11-15T01:50:31;100048.19;;;9.05;100.00
22653;BME280;11493;43.344;26.226;2022-11-15T01:53:19;100045.25;;;8.97;100.00
22653;BME280;11493;43.344;26.226;2022-11-15T01:56:12;100049.97;;;8.91;100.00
22653;BME280;11493;43.344;26.226;2022-11-15T01:59:03;100046.91;;;8.93;100.00
22653;BME280;11493;43.344;26.226;2022-11-15T02:01:50;100051.84;;;8.96;100.00
22653;BME280;11493;43.344;26.226;2022-11-15T02:04:41;100045.53;;;8.95;100.00
22653;BME280;11493;43.344;26.226;2022-11-15T02:07:28;100046.91;;;8.93;100.00
22653;BME280;11493;43.344;26.226;2022-11-15T02:10:21;100042.50;;;8.97;100.00
22653;BME280;11493;43.344;26.226;2022-11-15T02:13:07;100038.88;;;9.01;100.00
22653;BME280;11493;43.344;26.226;2022-11-15T02:16:20;100034.47;;;9.05;100.00
22653;BME280;11493;43.344;26.226;2022-11-15T02:32:03;100028.47;;;8.98;100.00
22653;BME280;11493;43.344;26.226;2022-11-15T02:35:08;100031.19;;;9.03;100.00
22653;BME280;11493;43.344;26.226;2022-11-15T02:37:59;100017.72;;;9.07;100.00
22653;BME280;11493;43.344;26.226;2022-11-15T02:41:02;100019.63;;;9.06;100.00
22653;BME280;11493;43.344;26.226;2022-11-15T02:47:16;100020.22;;;9.03;100.00
22653;BME280;11493;43.344;26.226;2022-11-15T02:50:07;100010.91;;;8.99;100.00
22653;BME280;11493;43.344;26.226;2022-11-15T02:52:54;100007.59;;;9.02;100.00
22653;BME280;11493;43.344;26.226;2022-11-15T02:55:46;100003.75;;;9.03;100.00
22653;BME280;11493;43.344;26.226;2022-11-15T03:02:14;100004.84;;;9.02;100.00
22653;BME280;11493;43.344;26.226;2022-11-15T03:08:26;100008.97;;;9.00;100.00
22653;BME280;11493;43.344;26.226;2022-11-15T03:11:17;100004.34;;;8.95;100.00
22653;BME280;11493;43.344;26.226;2022-11-15T03:14:26;100014.81;;;8.93;100.00
22653;BME280;11493;43.344;26.226;2022-11-15T03:17:26;100009.09;;;8.89;100.00
22653;BME280;11493;43.344;26.226;2022-11-15T03:20:16;99995.09;;;8.91;100.00
22653;BME280;11493;43.344;26.226;2022-11-15T03:23:08;99996.94;;;8.96;100.00
22653;BME280;11493;43.344;26.226;2022-11-15T03:25:56;99997.19;;;8.99;100.00
22653;BME280;11493;43.344;26.226;2022-11-15T03:28:50;100004.06;;;8.97;100.00
22653;BME280;11493;43.344;26.226;2022-11-15T03:31:44;99994.03;;;8.87;100.00
22653;BME280;11493;43.344;26.226;2022-11-15T03:34:58;99998.94;;;8.90;100.00
22653;BME280;11493;43.344;26.226;2022-11-15T03:44:12;99986.38;;;8.84;100.00
22653;BME280;11493;43.344;26.226;2022-11-15T03:49:49;99976.97;;;8.90;100.00
22653;BME280;11493;43.344;26.226;2022-11-15T03:52:36;99978.94;;;8.84;100.00
22653;BME280;11493;43.344;26.226;2022-11-15T03:55:43;99966.66;;;8.77;100.00
22653;BME280;11493;43.344;26.226;2022-11-15T03:58:30;99980.34;;;8.82;100.00
22653;BME280;11493;43.344;26.226;2022-11-15T04:01:15;99977.31;;;8.83;100.00
22653;BME280;11493;43.344;26.226;2022-11-15T04:04:01;99969.31;;;8.87;100.00
22653;BME280;11493;43.344;26.226;2022-11-15T04:06:47;99967.72;;;8.81;100.00
22653;BME280;11493;43.344;26.226;2022-11-15T04:09:33;99963.88;;;8.82;100.00
22653;BME280;11493;43.344;26.226;2022-11-15T04:12:42;99972.94;;;8.82;100.00
22653;BME280;11493;43.344;26.226;2022-11-15T04:15:28;99968.31;;;8.78;100.00
22653;BME280;11493;43.344;26.226;2022-11-15T04:18:14;99962.81;;;8.78;100.00
22653;BME280;11493;43.344;26.226;2022-11-15T04:21:00;99955.97;;;8.75;100.00
22653;BME280;11493;43.344;26.226;2022-11-15T04:24:04;99946.31;;;8.83;100.00
22653;BME280;11493;43.344;26.226;2022-11-15T04:26:50;99937.63;;;8.71;100.00
22653;BME280;11493;43.344;26.226;2022-11-15T04:29:36;99938.75;;;8.70;100.00
22653;BME280;11493;43.344;26.226;2022-11-15T04:32:22;99957.91;;;8.75;100.00
22653;BME280;11493;43.344;26.226;2022-11-15T04:35:08;99952.41;;;8.75;100.00
22653;BME280;11493;43.344;26.226;2022-11-15T04:37:56;99951.34;;;8.71;100.00
22653;BME280;11493;43.344;26.226;2022-11-15T04:40:41;99936.03;;;8.65;100.00
22653;BME280;11493;43.344;26.226;2022-11-15T04:43:27;99950.78;;;8.74;100.00
22653;BME280;11493;43.344;26.226;2022-11-15T04:46:13;99945.50;;;8.82;100.00
22653;BME280;11493;43.344;26.226;2022-11-15T04:48:59;99953.38;;;8.89;100.00
22653;BME280;11493;43.344;26.226;2022-11-15T04:51:45;99959.69;;;8.89;100.00
22653;BME280;11493;43.344;26.226;2022-11-15T04:54:31;99952.31;;;8.85;100.00
22653;BME280;11493;43.344;26.226;2022-11-15T04:57:17;99961.44;;;8.80;100.00
22653;BME280;11493;43.344;26.226;2022-11-15T05:00:08;99967.78;;;8.76;100.00
22653;BME280;11493;43.344;26.226;2022-11-15T05:02:56;99950.22;;;8.77;100.00
22653;BME280;11493;43.344;26.226;2022-11-15T05:06:00;99947.94;;;8.84;100.00
22653;BME280;11493;43.344;26.226;2022-11-15T05:08:46;99946.25;;;8.88;100.00
22653;BME280;11493;43.344;26.226;2022-11-15T05:11:33;99949.53;;;8.90;100.00
22653;BME280;11493;43.344;26.226;2022-11-15T05:14:18;99952.28;;;8.90;100.00
22653;BME280;11493;43.344;26.226;2022-11-15T05:17:05;99953.09;;;8.91;100.00
22653;BME280;11493;43.344;26.226;2022-11-15T05:19:50;99958.81;;;8.94;100.00
22653;BME280;11493;43.344;26.226;2022-11-15T05:22:37;99948.94;;;8.93;100.00
22653;BME280;11493;43.344;26.226;2022-11-15T05:25:23;99943.22;;;8.89;100.00
22653;BME280;11493;43.344;26.226;2022-11-15T05:28:09;99946.84;;;8.85;100.00
22653;BME280;11493;43.344;26.226;2022-11-15T05:31:13;99946.84;;;8.85;100.00
22653;BME280;11493;43.344;26.226;2022-11-15T05:34:00;99953.38;;;8.89;100.00
22653;BME280;11493;43.344;26.226;2022-11-15T05:36:48;99942.16;;;8.85;100.00
22653;BME280;11493;43.344;26.226;2022-11-15T05:39:35;99953.09;;;8.91;100.00
22653;BME280;11493;43.344;26.226;2022-11-15T05:42:21;99956.66;;;8.91;100.00
22653;BME280;11493;43.344;26.226;2022-11-15T05:45:08;99964.09;;;8.91;100.00
22653;BME280;11493;43.344;26.226;2022-11-15T05:47:56;99953.91;;;8.91;100.00
22653;BME280;11493;43.344;26.226;2022-11-15T05:50:47;99952.31;;;8.85;100.00
22653;BME280;11493;43.344;26.226;2022-11-15T05:53:33;99956.06;;;8.94;100.00
22653;BME280;11493;43.344;26.226;2022-11-15T05:56:21;99957.13;;;8.98;100.00
22653;BME280;11493;43.344;26.226;2022-11-15T05:59:08;99964.25;;;8.99;100.00
22653;BME280;11493;43.344;26.226;2022-11-15T06:01:55;99949.47;;;8.95;100.00
22653;BME280;11493;43.344;26.226;2022-11-15T06:04:42;99962.03;;;9.01;100.00
22653;BME280;11493;43.344;26.226;2022-11-15T06:07:29;99956.53;;;9.01;100.00
22653;BME280;11493;43.344;26.226;2022-11-15T06:10:15;99955.38;;;9.07;100.00
22653;BME280;11493;43.344;26.226;2022-11-15T06:13:03;99953.84;;;8.96;100.00
22653;BME280;11493;43.344;26.226;2022-11-15T06:15:50;99960.16;;;8.97;100.00
22653;BME280;11493;43.344;26.226;2022-11-15T06:18:36;99974.69;;;8.97;100.00
22653;BME280;11493;43.344;26.226;2022-11-15T06:21:22;99970.78;;;9.03;100.00
22653;BME280;11493;43.344;26.226;2022-11-15T06:24:08;99963.03;;;9.10;100.00
22653;BME280;11493;43.344;26.226;2022-11-15T06:26:54;99954.28;;;9.08;100.00
22653;BME280;11493;43.344;26.226;2022-11-15T06:29:40;99969.63;;;9.09;100.00
22653;BME280;11493;43.344;26.226;2022-11-15T06:32:29;99972.91;;;9.11;100.00
22653;BME280;11493;43.344;26.226;2022-11-15T06:35:15;99978.69;;;9.10;100.00
22653;BME280;11493;43.344;26.226;2022-11-15T06:38:07;99975.09;;;9.14;100.00
22653;BME280;11493;43.344;26.226;2022-11-15T06:40:53;99964.69;;;9.11;100.00
22653;BME280;11493;43.344;26.226;2022-11-15T06:43:41;99969.53;;;9.19;100.00
22653;BME280;11493;43.344;26.226;2022-11-15T06:46:27;99976.16;;;9.18;100.00
22653;BME280;11493;43.344;26.226;2022-11-15T06:49:13;99964.06;;;9.19;100.00
22653;BME280;11493;43.344;26.226;2022-11-15T06:51:59;99960.16;;;9.26;100.00
22653;BME280;11493;43.344;26.226;2022-11-15T06:54:45;99960.09;;;9.31;100.00
22653;BME280;11493;43.344;26.226;2022-11-15T06:57:32;99972.72;;;9.32;100.00
22653;BME280;11493;43.344;26.226;2022-11-15T07:00:20;99960.81;;;9.41;100.00
22653;BME280;11493;43.344;26.226;2022-11-15T07:03:08;99963.25;;;9.43;100.00
22653;BME280;11493;43.344;26.226;2022-11-15T07:05:55;99967.66;;;9.44;100.00
22653;BME280;11493;43.344;26.226;2022-11-15T07:08:49;99955.53;;;9.45;100.00
22653;BME280;11493;43.344;26.226;2022-11-15T07:11:35;99955.78;;;9.48;100.00
22653;BME280;11493;43.344;26.226;2022-11-15T07:14:21;99962.56;;;9.56;100.00
22653;BME280;11493;43.344;26.226;2022-11-15T07:17:07;99954.84;;;9.58;100.00
22653;BME280;11493;43.344;26.226;2022-11-15T07:19:53;99965.50;;;9.65;100.00
22653;BME280;11493;43.344;26.226;2022-11-15T07:22:40;99960.06;;;9.60;100.00
22653;BME280;11493;43.344;26.226;2022-11-15T07:25:26;99948.81;;;9.56;100.00
22653;BME280;11493;43.344;26.226;2022-11-15T07:28:11;99955.59;;;9.64;100.00
22653;BME280;11493;43.344;26.226;2022-11-15T07:30:58;99950.03;;;9.69;100.00
22653;BME280;11493;43.344;26.226;2022-11-15T07:33:47;99951.59;;;9.75;100.00
22653;BME280;11493;43.344;26.226;2022-11-15T07:36:36;99947.97;;;9.79;100.00
22653;BME280;11493;43.344;26.226;2022-11-15T07:39:22;99943.22;;;9.85;100.00
22653;BME280;11493;43.344;26.226;2022-11-15T07:42:08;99945.16;;;9.84;100.00
22653;BME280;11493;43.344;26.226;2022-11-15T07:45:12;99947.38;;;9.82;100.00
22653;BME280;11493;43.344;26.226;2022-11-15T07:47:59;99940.47;;;9.85;100.00
22653;BME280;11493;43.344;26.226;2022-11-15T07:50:44;99953.41;;;9.84;100.00
22653;BME280;11493;43.344;26.226;2022-11-15T07:53:30;99939.78;;;9.74;100.00
22653;BME280;11493;43.344;26.226;2022-11-15T07:56:17;99941.88;;;9.82;100.00
22653;BME280;11493;43.344;26.226;2022-11-15T07:59:03;99934.44;;;9.83;100.00
22653;BME280;11493;43.344;26.226;2022-11-15T08:01:49;99946.25;;;9.83;100.00
22653;BME280;11493;43.344;26.226;2022-11-15T08:04:35;99930.94;;;9.77;100.00
22653;BME280;11493;43.344;26.226;2022-11-15T08:07:21;99940.41;;;9.90;100.00
22653;BME280;11493;43.344;26.226;2022-11-15T08:10:08;99940.84;;;9.97;100.00
22653;BME280;11493;43.344;26.226;2022-11-15T08:13:05;99951.94;;;10.11;100.00
22653;BME280;11493;43.344;26.226;2022-11-15T08:15:57;99934.94;;;10.09;100.00
22653;BME280;11493;43.344;26.226;2022-11-15T08:18:44;99937.09;;;10.12;100.00
22653;BME280;11493;43.344;26.226;2022-11-15T08:21:30;99933.81;;;10.10;100.00
22653;BME280;11493;43.344;26.226;2022-11-15T08:24:16;99941.41;;;10.18;100.00
22653;BME280;11493;43.344;26.226;2022-11-15T08:27:02;99943.00;;;10.24;100.00
22653;BME280;11493;43.344;26.226;2022-11-15T08:29:48;99921.50;;;10.26;100.00
22653;BME280;11493;43.344;26.226;2022-11-15T08:32:35;99938.88;;;10.40;100.00
22653;BME280;11493;43.344;26.226;2022-11-15T08:35:21;99928.69;;;10.41;100.00
22653;BME280;11493;43.344;26.226;2022-11-15T08:38:13;99930.16;;;10.52;99.12
22653;BME280;11493;43.344;26.226;2022-11-15T08:41:01;99924.94;;;10.50;97.59
22653;BME280;11493;43.344;26.226;2022-11-15T08:43:48;99917.91;;;10.44;97.02
22653;BME280;11493;43.344;26.226;2022-11-15T08:46:34;99922.13;;;10.56;95.69
22653;BME280;11493;43.344;26.226;2022-11-15T08:49:19;99918.78;;;10.59;95.63
22653;BME280;11493;43.344;26.226;2022-11-15T08:52:05;99907.94;;;10.48;95.18
22653;BME280;11493;43.344;26.226;2022-11-15T08:54:52;99903.06;;;10.59;93.84
22653;BME280;11493;43.344;26.226;2022-11-15T08:57:38;99905.13;;;10.67;91.78
22653;BME280;11493;43.344;26.226;2022-11-15T09:00:24;99906.84;;;10.63;92.54
22653;BME280;11493;43.344;26.226;2022-11-15T09:03:10;99893.91;;;10.64;92.79
22653;BME280;11493;43.344;26.226;2022-11-15T09:05:59;99893.97;;;10.77;91.50
22653;BME280;11493;43.344;26.226;2022-11-15T09:08:46;99891.72;;;10.79;91.14
22653;BME280;11493;43.344;26.226;2022-11-15T09:11:32;99884.88;;;10.77;91.49
22653;BME280;11493;43.344;26.226;2022-11-15T09:14:18;99876.63;;;10.77;91.45
22653;BME280;11493;43.344;26.226;2022-11-15T09:17:07;99878.84;;;10.75;92.31
22653;BME280;11493;43.344;26.226;2022-11-15T09:19:53;99876.03;;;10.80;92.31
22653;BME280;11493;43.344;26.226;2022-11-15T09:22:39;99877.03;;;10.84;92.55
22653;BME280;11493;43.344;26.226;2022-11-15T09:25:25;99862.59;;;10.92;91.15
22653;BME280;11493;43.344;26.226;2022-11-15T09:28:11;99860.94;;;10.91;90.59
22653;BME280;11493;43.344;26.226;2022-11-15T09:31:01;99852.59;;;10.96;89.59
22653;BME280;11493;43.344;26.226;2022-11-15T09:33:47;99855.84;;;10.98;90.12
22653;BME280;11493;43.344;26.226;2022-11-15T09:36:33;99852.81;;;11.00;90.10
22653;BME280;11493;43.344;26.226;2022-11-15T09:39:19;99849.84;;;10.96;90.87
22653;BME280;11493;43.344;26.226;2022-11-15T09:42:08;99851.69;;;11.01;89.90
22653;BME280;11493;43.344;26.226;2022-11-15T09:45:26;99847.59;;;10.98;90.42
22653;BME280;11493;43.344;26.226;2022-11-15T09:54:04;99838.53;;;10.98;89.74
22653;BME280;11493;43.344;26.226;2022-11-15T09:56:53;99832.19;;;10.97;90.40
22653;BME280;11493;43.344;26.226;2022-11-15T10:04:59;99825.28;;;11.13;88.71
22653;BME280;11493;43.344;26.226;2022-11-15T10:07:48;99813.00;;;11.19;87.47
22653;BME280;11493;43.344;26.226;2022-11-15T10:13:12;99810.94;;;11.25;87.74
22653;BME280;11493;43.344;26.226;2022-11-15T10:15:43;99804.00;;;11.28;87.91
22653;BME280;11493;43.344;26.226;2022-11-15T10:18:17;99801.25;;;11.28;87.54
22653;BME280;11493;43.344;26.226;2022-11-15T10:20:51;99799.84;;;11.30;87.20
22653;BME280;11493;43.344;26.226;2022-11-15T10:23:22;99786.25;;;11.34;86.74
22653;BME280;11493;43.344;26.226;2022-11-15T10:25:55;99759.22;;;11.22;85.66
22653;BME280;11493;43.344;26.226;2022-11-15T10:28:31;99792.16;;;11.41;85.68
22653;BME280;11493;43.344;26.226;2022-11-15T10:31:00;99776.25;;;11.38;85.59
22653;BME280;11493;43.344;26.226;2022-11-15T10:33:36;99778.00;;;11.34;86.37
22653;BME280;11493;43.344;26.226;2022-11-15T10:41:22;99773.41;;;11.29;87.14
22653;BME280;11493;43.344;26.226;2022-11-15T10:49:24;99763.72;;;11.32;87.14
22653;BME280;11493;43.344;26.226;2022-11-15T10:57:23;99755.44;;;11.32;87.38
22653;BME280;11493;43.344;26.226;2022-11-15T10:59:58;99748.91;;;11.28;87.75
22653;BME280;11493;43.344;26.226;2022-11-15T11:02:38;99750.34;;;11.25;87.77
22653;BME280;11493;43.344;26.226;2022-11-15T11:05:26;99744.97;;;11.20;86.79
22653;BME280;11493;43.344;26.226;2022-11-15T11:07:59;99734.88;;;11.15;87.56
22653;BME280;11493;43.344;26.226;2022-11-15T11:10:28;99740.16;;;11.26;87.52
22653;BME280;11493;43.344;26.226;2022-11-15T11:13:26;99738.53;;;11.25;87.25
22653;BME280;11493;43.344;26.226;2022-11-15T11:18:34;99719.75;;;11.27;88.33
22653;BME280;11493;43.344;26.226;2022-11-15T11:21:09;99716.47;;;11.25;88.53
22653;BME280;11493;43.344;26.226;2022-11-15T11:23:49;99722.06;;;11.33;88.92
22653;BME280;11493;43.344;26.226;2022-11-15T11:37:24;99693.00;;;11.27;87.92
22653;BME280;11493;43.344;26.226;2022-11-15T11:48:10;99682.47;;;11.43;86.77
22653;BME280;11493;43.344;26.226;2022-11-15T11:50:38;99683.16;;;11.48;87.19
22653;BME280;11493;43.344;26.226;2022-11-15T11:53:31;99663.16;;;11.43;86.97
22653;BME280;11493;43.344;26.226;2022-11-15T11:56:08;99665.94;;;11.43;86.19
22653;BME280;11493;43.344;26.226;2022-11-15T11:58:45;99679.28;;;11.49;86.75
22653;BME280;11493;43.344;26.226;2022-11-15T12:01:33;99667.44;;;11.49;86.17
22653;BME280;11493;43.344;26.226;2022-11-15T12:04:30;99663.03;;;11.48;85.82
22653;BME280;11493;43.344;26.226;2022-11-15T12:09:57;99660.34;;;11.34;86.07
22653;BME280;11493;43.344;26.226;2022-11-15T12:12:46;99657.09;;;11.32;86.74
22653;BME280;11493;43.344;26.226;2022-11-15T12:15:33;99645.63;;;11.39;86.65
22653;BME280;11493;43.344;26.226;2022-11-15T12:18:03;99654.97;;;11.51;86.15
22653;BME280;11493;43.344;26.226;2022-11-15T12:20:37;99647.81;;;11.50;85.85
22653;BME280;11493;43.344;26.226;2022-11-15T12:23:38;99648.41;;;11.61;85.42
22653;BME280;11493;43.344;26.226;2022-11-15T12:26:11;99637.56;;;11.65;85.96
22653;BME280;11493;43.344;26.226;2022-11-15T12:29:11;99636.13;;;11.67;85.82
22653;BME280;11493;43.344;26.226;2022-11-15T12:34:33;99632.31;;;11.55;85.51
22653;BME280;11493;43.344;26.226;2022-11-15T12:45:44;99620.84;;;11.39;85.22
22653;BME280;11493;43.344;26.226;2022-11-15T12:58:49;99620.78;;;11.30;86.88
22653;BME280;11493;43.344;26.226;2022-11-15T13:20:36;99586.56;;;11.53;86.63
22653;BME280;11493;43.344;26.226;2022-11-15T13:23:15;99593.84;;;11.49;86.13
22653;BME280;11493;43.344;26.226;2022-11-15T13:26:12;99589.41;;;11.40;86.22
22653;BME280;11493;43.344;26.226;2022-11-15T13:28:51;99581.94;;;11.40;86.10
22653;BME280;11493;43.344;26.226;2022-11-15T13:37:02;99571.44;;;11.20;86.61
22653;BME280;11493;43.344;26.226;2022-11-15T13:39:31;99570.94;;;11.18;86.95
22653;BME280;11493;43.344;26.226;2022-11-15T13:41:59;99556.00;;;11.10;86.54
22653;BME280;11493;43.344;26.226;2022-11-15T13:44:32;99564.28;;;11.19;86.64
22653;BME280;11493;43.344;26.226;2022-11-15T13:47:36;99576.75;;;11.16;86.59
22653;BME280;11493;43.344;26.226;2022-11-15T13:49:57;99564.13;;;11.15;87.01
22653;BME280;11493;43.344;26.226;2022-11-15T13:52:32;99570.75;;;11.14;87.34
22653;BME280;11493;43.344;26.226;2022-11-15T13:57:53;99556.00;;;11.10;88.05
22653;BME280;11493;43.344;26.226;2022-11-15T14:00:38;99555.00;;;11.06;88.05
22653;BME280;11493;43.344;26.226;2022-11-15T14:03:11;99544.78;;;11.07;88.09
22653;BME280;11493;43.344;26.226;2022-11-15T14:05:42;99539.78;;;11.09;88.03
22653;BME280;11493;43.344;26.226;2022-11-15T14:11:15;99534.22;;;11.00;89.13
22653;BME280;11493;43.344;26.226;2022-11-15T14:16:37;99534.59;;;10.85;90.44
22653;BME280;11493;43.344;26.226;2022-11-15T14:19:09;99527.56;;;10.79;91.07
22653;BME280;11493;43.344;26.226;2022-11-15T14:22:18;99532.69;;;10.72;91.37
22653;BME280;11493;43.344;26.226;2022-11-15T14:25:12;99532.69;;;10.72;90.91
22653;BME280;11493;43.344;26.226;2022-11-15T14:27:42;99521.22;;;10.56;92.03
22653;BME280;11493;43.344;26.226;2022-11-15T14:30:17;99513.00;;;10.42;92.64
22653;BME280;11493;43.344;26.226;2022-11-15T14:32:47;99491.97;;;10.24;92.84
22653;BME280;11493;43.344;26.226;2022-11-15T14:35:20;99513.88;;;10.29;93.24
22653;BME280;11493;43.344;26.226;2022-11-15T14:37:49;99512.22;;;10.28;93.96
22653;BME280;11493;43.344;26.226;2022-11-15T14:40:19;99510.22;;;10.20;94.87
22653;BME280;11493;43.344;26.226;2022-11-15T14:42:47;99514.66;;;10.16;94.90
22653;BME280;11493;43.344;26.226;2022-11-15T14:45:20;99498.38;;;10.06;95.44
22653;BME280;11493;43.344;26.226;2022-11-15T14:47:48;99491.34;;;10.00;95.57
22653;BME280;11493;43.344;26.226;2022-11-15T14:50:19;99503.69;;;9.88;96.28
22653;BME280;11493;43.344;26.226;2022-11-15T14:52:48;99503.47;;;9.85;97.12
22653;BME280;11493;43.344;26.226;2022-11-15T14:55:23;99491.16;;;9.82;97.25
22653;BME280;11493;43.344;26.226;2022-11-15T14:57:51;99486.38;;;9.74;97.57
22653;BME280;11493;43.344;26.226;2022-11-15T15:00:20;99495.94;;;9.77;97.53
22653;BME280;11493;43.344;26.226;2022-11-15T15:02:53;99499.00;;;9.62;98.14
22653;BME280;11493;43.344;26.226;2022-11-15T15:05:24;99495.94;;;9.49;98.94
22653;BME280;11493;43.344;26.226;2022-11-15T15:07:51;99481.50;;;9.44;99.57
22653;BME280;11493;43.344;26.226;2022-11-15T15:10:20;99497.56;;;9.37;100.00
22653;BME280;11493;43.344;26.226;2022-11-15T15:15:43;99493.25;;;9.17;100.00
22653;BME280;11493;43.344;26.226;2022-11-15T15:18:10;99501.34;;;9.08;100.00
22653;BME280;11493;43.344;26.226;2022-11-15T15:20:41;99496.03;;;8.98;100.00
22653;BME280;11493;43.344;26.226;2022-11-15T15:23:19;99492.97;;;8.86;100.00
22653;BME280;11493;43.344;26.226;2022-11-15T15:25:47;99505.56;;;8.87;100.00
22653;BME280;11493;43.344;26.226;2022-11-15T15:28:16;99501.66;;;8.74;100.00
22653;BME280;11493;43.344;26.226;2022-11-15T15:30:43;99494.09;;;8.66;100.00
22653;BME280;11493;43.344;26.226;2022-11-15T15:33:10;99490.09;;;8.59;100.00
22653;BME280;11493;43.344;26.226;2022-11-15T15:35:37;99496.09;;;8.61;100.00
22653;BME280;11493;43.344;26.226;2022-11-15T15:38:05;99494.25;;;8.56;100.00
22653;BME280;11493;43.344;26.226;2022-11-15T15:40:32;99494.63;;;8.49;100.00
22653;BME280;11493;43.344;26.226;2022-11-15T15:43:00;99492.78;;;8.45;100.00
22653;BME280;11493;43.344;26.226;2022-11-15T15:45:27;99467.78;;;8.28;100.00
22653;BME280;11493;43.344;26.226;2022-11-15T15:47:55;99493.47;;;8.32;100.00
22653;BME280;11493;43.344;26.226;2022-11-15T15:50:25;99482.88;;;8.25;100.00
22653;BME280;11493;43.344;26.226;2022-11-15T15:53:01;99489.06;;;8.17;100.00
22653;BME280;11493;43.344;26.226;2022-11-15T15:55:32;99478.00;;;8.03;100.00
22653;BME280;11493;43.344;26.226;2022-11-15T15:58:04;99487.84;;;8.04;100.00
22653;BME280;11493;43.344;26.226;2022-11-15T16:00:38;99487.91;;;7.99;100.00
22653;BME280;11493;43.344;26.226;2022-11-15T16:03:06;99489.59;;;7.95;100.00
22653;BME280;11493;43.344;26.226;2022-11-15T16:05:36;99484.19;;;7.90;100.00
22653;BME280;11493;43.344;26.226;2022-11-15T16:08:27;99484.03;;;7.81;100.00
22653;BME280;11493;43.344;26.226;2022-11-15T16:11:21;99480.59;;;7.71;100.00
22653;BME280;11493;43.344;26.226;2022-11-15T16:13:48;99482.44;;;7.75;100.00
22653;BME280;11493;43.344;26.226;2022-11-15T16:16:15;99480.59;;;7.71;100.00
22653;BME280;11493;43.344;26.226;2022-11-15T16:18:42;99473.78;;;7.68;100.00
22653;BME280;11493;43.344;26.226;2022-11-15T16:21:10;99463.16;;;7.62;100.00
22653;BME280;11493;43.344;26.226;2022-11-15T16:23:37;99464.81;;;7.63;100.00
22653;BME280;11493;43.344;26.226;2022-11-15T16:26:19;99471.69;;;7.60;100.00
22653;BME280;11493;43.344;26.226;2022-11-15T16:29:00;99455.31;;;7.55;100.00
22653;BME280;11493;43.344;26.226;2022-11-15T16:31:28;99461.25;;;7.62;100.00
22653;BME280;11493;43.344;26.226;2022-11-15T16:33:55;99445.97;;;7.56;100.00
22653;BME280;11493;43.344;26.226;2022-11-15T16:36:24;99456.81;;;7.66;100.00
22653;BME280;11493;43.344;26.226;2022-11-15T16:38:57;99448.91;;;7.65;100.00